Time;durP1;ratioP1;P1;durP2;ratioP2;P2;SDS_P1;SDS_P2;PMS_P1;PMS_P2;Temp;Humidity;BMP_temperature;BMP_pressure;BME280_temperature;BME280_humidity;BME280_pressure;Samples;Min_cycle;Max_cycle;Signal;HPM_P1;HPM_P2
2021/01/28 00:01:13;;;;;;;10.00;7.53;;;2.80;99.90;;;;;;5049614;28;20187;-71
2021/01/28 00:03:39;;;;;;;8.63;7.10;;;2.80;99.90;;;;;;5049533;28;20695;-71
2021/01/28 00:06:06;;;;;;;16.27;8.83;;;2.80;99.90;;;;;;5049284;28;20435;-72
2021/01/28 00:08:31;;;;;;;9.53;7.40;;;2.80;99.90;;;;;;5032350;28;21005;-73
2021/01/28 00:10:57;;;;;;;8.50;7.27;;;2.80;99.90;;;;;;5035690;28;20432;-71
2021/01/28 00:13:22;;;;;;;9.47;8.50;;;2.80;99.90;;;;;;5053851;28;20184;-71
2021/01/28 00:15:48;;;;;;;8.97;7.90;;;2.80;99.90;;;;;;5052749;28;21515;-72
2021/01/28 00:18:14;;;;;;;9.07;7.70;;;2.80;99.90;;;;;;5053407;28;20226;-72
2021/01/28 00:20:46;;;;;;;12.83;9.20;;;2.80;99.90;;;;;;5053163;28;20166;-72
2021/01/28 00:23:12;;;;;;;9.30;7.50;;;2.80;99.90;;;;;;5053244;28;20431;-72
2021/01/28 00:25:38;;;;;;;13.50;8.43;;;2.80;99.90;;;;;;5034896;28;20438;-73
2021/01/28 00:28:05;;;;;;;7.63;6.67;;;2.80;99.90;;;;;;5053443;28;20201;-72
2021/01/28 00:30:39;;;;;;;7.93;6.90;;;2.80;99.90;;;;;;5053012;28;20428;-72
2021/01/28 00:33:06;;;;;;;11.00;7.70;;;2.80;99.90;;;;;;5053002;28;20467;-72
2021/01/28 00:35:35;;;;;;;10.10;8.00;;;2.80;99.90;;;;;;5052650;28;20462;-71
2021/01/28 00:38:02;;;;;;;8.73;7.40;;;2.80;99.90;;;;;;5053169;28;20494;-72
2021/01/28 00:40:29;;;;;;;8.60;7.27;;;2.80;99.90;;;;;;5053306;28;20464;-72
2021/01/28 00:42:55;;;;;;;9.33;7.47;;;2.80;99.90;;;;;;5052742;28;20444;-71
2021/01/28 00:45:30;;;;;;;8.73;6.20;;;2.80;99.90;;;;;;5052685;28;20803;-71
2021/01/28 00:47:56;;;;;;;9.13;6.93;;;2.80;99.90;;;;;;5053120;28;20520;-71
2021/01/28 00:50:24;;;;;;;9.90;6.83;;;2.80;99.90;;;;;;5053043;28;20791;-71
2021/01/28 00:52:50;;;;;;;8.40;6.67;;;2.80;99.90;;;;;;5052699;28;20510;-72
2021/01/28 00:55:17;;;;;;;6.70;6.00;;;2.80;99.90;;;;;;5034543;28;20546;-72
2021/01/28 00:57:43;;;;;;;10.20;6.87;;;2.80;99.90;;;;;;5052757;28;20456;-71
2021/01/28 01:00:31;;;;;;;9.43;7.47;;;2.80;99.90;;;;;;5052480;28;20438;-71
2021/01/28 01:02:56;;;;;;;10.20;7.50;;;2.90;99.90;;;;;;5052443;28;20416;-72
2021/01/28 01:05:24;;;;;;;8.63;7.27;;;2.90;99.90;;;;;;5052566;28;20511;-72
2021/01/28 01:07:50;;;;;;;8.17;6.77;;;2.90;99.90;;;;;;5052215;28;20212;-71
2021/01/28 01:10:32;;;;;;;9.07;7.40;;;2.90;99.90;;;;;;5052361;28;20436;-72
2021/01/28 01:12:58;;;;;;;7.53;6.67;;;2.90;99.90;;;;;;5038048;28;20450;-71
2021/01/28 01:15:23;;;;;;;7.53;6.70;;;2.90;99.90;;;;;;5052245;28;20463;-72
2021/01/28 01:17:49;;;;;;;7.57;6.80;;;2.90;99.90;;;;;;5052432;28;20202;-72
2021/01/28 01:20:18;;;;;;;8.30;7.07;;;2.90;99.90;;;;;;5051886;28;20544;-71
2021/01/28 01:22:44;;;;;;;8.17;7.20;;;2.90;99.90;;;;;;5052208;28;20980;-71
2021/01/28 01:25:10;;;;;;;9.23;7.20;;;2.90;99.90;;;;;;5051994;28;20440;-71
2021/01/28 01:27:36;;;;;;;11.27;7.90;;;2.90;99.90;;;;;;5052021;28;20645;-71
2021/01/28 01:30:06;;;;;;;8.00;6.60;;;2.90;99.90;;;;;;5052027;28;20527;-72
2021/01/28 01:32:32;;;;;;;9.60;7.70;;;2.90;99.90;;;;;;5052621;28;20191;-72
2021/01/28 01:34:57;;;;;;;10.33;8.03;;;2.90;99.90;;;;;;5052298;28;20562;-71
2021/01/28 01:37:23;;;;;;;9.93;7.80;;;2.90;99.90;;;;;;5034075;28;20745;-72
2021/01/28 01:39:49;;;;;;;8.20;7.03;;;2.90;99.90;;;;;;5051949;28;20242;-71
2021/01/28 01:42:14;;;;;;;8.33;7.23;;;2.90;99.90;;;;;;5052021;28;20232;-71
2021/01/28 01:44:40;;;;;;;12.40;8.07;;;2.90;99.90;;;;;;5051352;28;20272;-72
2021/01/28 01:47:34;;;;;;;9.37;6.50;;;2.90;99.90;;;;;;5051283;28;20201;-73
2021/01/28 01:50:03;;;;;;;7.33;6.13;;;2.90;99.90;;;;;;5037816;28;20603;-72
2021/01/28 01:52:31;;;;;;;8.47;7.67;;;3.00;99.90;;;;;;5051620;28;20432;-72
2021/01/28 01:54:58;;;;;;;9.27;6.83;;;3.00;99.90;;;;;;5051664;28;20463;-73
2021/01/28 01:57:29;;;;;;;10.20;6.73;;;3.00;99.90;;;;;;5051185;28;20454;-73
2021/01/28 02:00:21;;;;;;;11.53;7.70;;;3.00;99.90;;;;;;5051996;28;20450;-73
2021/01/28 02:02:52;;;;;;;7.60;6.30;;;3.00;99.90;;;;;;5050697;28;20479;-73
2021/01/28 02:05:24;;;;;;;9.10;7.13;;;3.00;99.90;;;;;;5051278;28;20512;-72
2021/01/28 02:07:50;;;;;;;9.63;7.03;;;2.90;99.90;;;;;;5051707;28;20520;-72
2021/01/28 02:10:18;;;;;;;7.40;6.70;;;3.00;99.90;;;;;;5051052;28;20452;-73
2021/01/28 02:12:44;;;;;;;10.93;6.53;;;2.90;99.90;;;;;;5051249;28;20181;-73
2021/01/28 02:15:11;;;;;;;7.70;6.37;;;2.90;99.90;;;;;;5051080;28;20997;-72
2021/01/28 02:17:39;;;;;;;10.20;7.87;;;2.90;99.90;;;;;;5051024;28;20663;-73
2021/01/28 02:20:18;;;;;;;8.27;6.90;;;3.00;99.90;;;;;;5051110;28;20434;-73
2021/01/28 02:22:53;;;;;;;7.87;6.17;;;3.00;99.90;;;;;;5051237;28;20432;-73
2021/01/28 02:25:31;;;;;;;11.33;7.37;;;3.00;99.90;;;;;;5050613;28;20438;-73
2021/01/28 02:28:01;;;;;;;11.83;7.57;;;3.10;99.90;;;;;;5050942;28;20452;-73
2021/01/28 02:30:29;;;;;;;8.00;6.10;;;3.10;99.90;;;;;;5032525;28;20498;-73
2021/01/28 02:32:54;;;;;;;7.70;6.20;;;3.10;99.90;;;;;;5050077;28;20442;-72
2021/01/28 02:35:23;;;;;;;7.20;5.33;;;3.10;99.90;;;;;;5050351;28;20562;-73
2021/01/28 02:37:49;;;;;;;8.03;6.10;;;3.20;99.90;;;;;;5050526;28;20693;-73
2021/01/28 02:40:18;;;;;;;5.70;4.50;;;3.20;99.90;;;;;;5051157;28;20795;-73
2021/01/28 02:42:44;;;;;;;4.93;4.37;;;3.20;99.90;;;;;;5050459;28;20527;-73
2021/01/28 02:45:15;;;;;;;7.10;4.80;;;3.20;99.90;;;;;;5051062;28;20523;-73
2021/01/28 02:47:40;;;;;;;5.20;4.20;;;3.20;99.90;;;;;;5050918;28;20289;-72
2021/01/28 02:50:06;;;;;;;8.10;4.37;;;3.20;99.90;;;;;;5050725;28;20987;-73
2021/01/28 02:52:32;;;;;;;6.83;4.20;;;3.20;99.90;;;;;;5050580;28;20253;-74
2021/01/28 02:54:57;;;;;;;6.50;3.50;;;3.20;99.90;;;;;;5051120;28;20505;-73
2021/01/28 02:57:23;;;;;;;4.60;3.97;;;3.20;99.90;;;;;;5050066;28;20233;-73
2021/01/28 02:59:48;;;;;;;5.03;4.20;;;3.20;99.90;;;;;;5050736;28;20185;-73
2021/01/28 03:02:18;;;;;;;5.50;3.97;;;3.30;99.90;;;;;;5050578;28;20189;-73
2021/01/28 03:04:44;;;;;;;4.10;3.70;;;3.30;99.90;;;;;;5050093;28;20173;-72
2021/01/28 03:07:11;;;;;;;5.17;3.87;;;3.30;99.90;;;;;;5050307;28;20478;-73
2021/01/28 03:09:37;;;;;;;4.87;3.67;;;3.30;99.90;;;;;;5050084;28;20465;-73
2021/01/28 03:12:05;;;;;;;5.17;3.77;;;3.30;99.90;;;;;;5050569;28;20450;-73
2021/01/28 03:14:31;;;;;;;4.70;3.60;;;3.30;99.90;;;;;;5049733;28;20216;-74
2021/01/28 03:16:56;;;;;;;5.00;4.47;;;3.30;99.90;;;;;;5049909;28;20447;-73
2021/01/28 03:19:22;;;;;;;4.83;4.30;;;3.30;99.90;;;;;;5049811;28;20681;-72
2021/01/28 03:21:47;;;;;;;5.97;4.77;;;3.30;99.90;;;;;;5050039;28;20176;-73
2021/01/28 03:24:14;;;;;;;5.83;4.23;;;3.30;99.90;;;;;;5049729;28;20170;-74
2021/01/28 03:26:40;;;;;;;5.63;3.90;;;3.30;99.90;;;;;;5049283;28;20273;-73
2021/01/28 03:29:07;;;;;;;7.30;4.17;;;3.40;99.90;;;;;;5050030;28;20925;-72
2021/01/28 03:31:33;;;;;;;4.30;3.63;;;3.40;99.90;;;;;;5050185;28;20550;-73
2021/01/28 03:33:59;;;;;;;6.13;4.70;;;3.40;99.90;;;;;;5049831;28;20434;-73
2021/01/28 03:36:25;;;;;;;5.40;4.37;;;3.40;99.90;;;;;;5049031;28;20299;-73
2021/01/28 03:38:50;;;;;;;5.47;4.00;;;3.40;99.90;;;;;;5050833;28;20506;-74
2021/01/28 03:41:16;;;;;;;4.40;3.30;;;3.40;99.90;;;;;;5041211;28;20427;-73
2021/01/28 03:43:41;;;;;;;4.83;3.20;;;3.50;99.90;;;;;;5052607;28;20551;-73
2021/01/28 03:46:07;;;;;;;6.90;3.87;;;3.50;99.90;;;;;;5052325;28;20181;-73
2021/01/28 03:48:32;;;;;;;4.77;3.70;;;3.50;99.90;;;;;;5051601;28;20210;-73
2021/01/28 03:50:58;;;;;;;5.37;4.00;;;3.50;99.90;;;;;;5053222;28;20174;-73
2021/01/28 03:53:23;;;;;;;4.10;3.43;;;3.50;99.90;;;;;;5051915;28;20575;-73
2021/01/28 03:55:49;;;;;;;3.87;3.23;;;3.50;99.90;;;;;;5051604;28;20707;-73
2021/01/28 03:58:14;;;;;;;3.83;3.23;;;3.50;99.90;;;;;;5052939;28;20202;-73
2021/01/28 04:00:40;;;;;;;4.20;3.27;;;3.50;99.90;;;;;;5033914;28;20182;-73
2021/01/28 04:03:05;;;;;;;6.07;3.70;;;3.50;99.90;;;;;;5052185;28;20170;-74
2021/01/28 04:05:31;;;;;;;4.73;3.70;;;3.50;99.90;;;;;;5051432;28;20551;-73
2021/01/28 04:07:57;;;;;;;6.33;4.70;;;3.50;99.90;;;;;;5050002;28;20239;-73
2021/01/28 04:10:34;;;;;;;5.77;4.50;;;3.40;99.90;;;;;;5049516;28;20181;-73
2021/01/28 04:13:03;;;;;;;5.57;4.33;;;3.40;99.90;;;;;;5031352;28;20193;-73
2021/01/28 04:15:29;;;;;;;6.20;4.77;;;3.40;99.90;;;;;;5049457;28;20529;-73
2021/01/28 04:17:55;;;;;;;8.03;5.80;;;3.40;99.90;;;;;;5049428;28;20460;-73
2021/01/28 04:20:24;;;;;;;8.50;6.43;;;3.40;99.90;;;;;;5049699;28;20935;-73
2021/01/28 04:22:49;;;;;;;9.60;7.33;;;3.40;99.90;;;;;;5049157;28;20443;-74
2021/01/28 04:25:16;;;;;;;12.57;7.07;;;3.40;99.90;;;;;;5049206;28;20954;-74
2021/01/28 04:27:42;;;;;;;9.70;7.50;;;3.40;99.90;;;;;;5031234;28;20197;-73
2021/01/28 04:30:11;;;;;;;8.90;6.43;;;3.40;99.90;;;;;;5049557;28;20458;-74
2021/01/28 04:32:37;;;;;;;10.10;7.60;;;3.30;99.90;;;;;;5049470;28;20641;-73
2021/01/28 04:35:04;;;;;;;11.20;8.10;;;3.30;99.90;;;;;;5048913;28;20521;-73
2021/01/28 04:37:30;;;;;;;9.67;7.43;;;3.30;99.90;;;;;;5049230;28;20190;-73
2021/01/28 04:39:55;;;;;;;8.30;6.57;;;3.30;99.90;;;;;;5031272;28;20450;-73
2021/01/28 04:42:36;;;;;;;11.63;8.17;;;3.30;99.90;;;;;;5049579;28;20576;-73
2021/01/28 04:45:03;;;;;;;12.57;8.17;;;3.40;99.90;;;;;;5049512;28;20288;-73
2021/01/28 04:47:29;;;;;;;11.43;8.70;;;3.30;99.90;;;;;;5049084;28;20510;-72
2021/01/28 04:49:58;;;;;;;12.53;8.23;;;3.30;99.90;;;;;;5049383;28;20444;-73
2021/01/28 04:52:25;;;;;;;10.03;8.17;;;3.40;99.90;;;;;;5049055;28;20182;-74
2021/01/28 04:54:54;;;;;;;8.90;6.57;;;3.40;99.90;;;;;;5050363;28;20875;-74
2021/01/28 04:57:20;;;;;;;10.13;7.90;;;3.40;99.90;;;;;;5053085;28;20462;-73
2021/01/28 04:59:49;;;;;;;13.13;8.47;;;3.40;99.90;;;;;;5052984;28;20435;-72
2021/01/28 05:02:19;;;;;;;10.37;7.00;;;3.40;99.90;;;;;;5053114;28;20224;-74
2021/01/28 05:04:49;;;;;;;12.00;7.53;;;3.50;99.90;;;;;;5052993;28;20923;-74
2021/01/28 05:07:22;;;;;;;13.67;8.80;;;3.50;99.90;;;;;;5052129;28;20887;-74
2021/01/28 05:10:04;;;;;;;10.77;7.50;;;3.50;99.90;;;;;;5052386;28;20428;-73
2021/01/28 05:12:30;;;;;;;9.90;7.17;;;3.50;99.90;;;;;;5052736;28;20439;-74
2021/01/28 05:15:22;;;;;;;8.07;6.23;;;3.50;99.90;;;;;;5052068;28;20464;-74
2021/01/28 05:18:01;;;;;;;9.33;6.83;;;3.60;99.90;;;;;;5052255;28;20198;-72
2021/01/28 05:20:28;;;;;;;10.20;6.90;;;3.50;99.90;;;;;;5051966;28;20531;-74
2021/01/28 05:23:10;;;;;;;11.53;7.13;;;3.50;99.90;;;;;;5052647;28;20503;-73
2021/01/28 05:25:40;;;;;;;13.57;9.00;;;3.50;99.90;;;;;;5051213;28;20443;-73
2021/01/28 05:28:19;;;;;;;9.10;6.60;;;3.50;99.90;;;;;;5051830;28;20542;-73
2021/01/28 05:30:45;;;;;;;10.60;8.33;;;3.50;99.90;;;;;;5050960;28;20815;-73
2021/01/28 05:33:40;;;;;;;9.40;7.50;;;3.40;99.90;;;;;;5052292;28;20497;-73
2021/01/28 05:36:17;;;;;;;9.37;6.60;;;3.40;99.90;;;;;;5034362;28;20856;-73
2021/01/28 05:38:48;;;;;;;9.60;7.40;;;3.40;99.90;;;;;;5052086;28;20466;-74
2021/01/28 05:41:31;;;;;;;12.50;8.20;;;3.50;99.90;;;;;;5051713;28;20525;-73
2021/01/28 05:44:11;;;;;;;11.67;7.00;;;3.40;99.90;;;;;;5052097;28;20448;-73
2021/01/28 05:46:37;;;;;;;7.07;5.37;;;3.50;99.90;;;;;;5050575;28;20950;-73
2021/01/28 05:49:17;;;;;;;11.27;6.90;;;3.40;99.90;;;;;;5050852;28;20443;-73
2021/01/28 05:51:45;;;;;;;9.30;6.63;;;3.40;99.90;;;;;;5052188;28;20633;-73
2021/01/28 05:54:27;;;;;;;11.00;6.20;;;3.40;99.90;;;;;;5051662;28;20917;-73
2021/01/28 05:56:59;;;;;;;7.57;6.20;;;3.40;99.90;;;;;;5050916;28;20479;-73
2021/01/28 05:59:49;;;;;;;9.47;6.63;;;3.40;99.90;;;;;;5051217;28;20507;-73
2021/01/28 06:02:15;;;;;;;10.83;7.20;;;3.40;99.90;;;;;;5033429;28;20430;-73
2021/01/28 06:05:10;;;;;;;8.73;6.97;;;3.40;99.90;;;;;;5051383;28;20416;-73
2021/01/28 06:08:00;;;;;;;9.00;6.83;;;3.40;99.90;;;;;;5050794;28;20213;-74
2021/01/28 06:11:02;;;;;;;10.47;6.63;;;3.40;99.90;;;;;;5051277;28;20481;-73
2021/01/28 06:13:59;;;;;;;8.37;5.93;;;3.50;99.90;;;;;;5033597;28;20870;-73
2021/01/28 06:16:38;;;;;;;8.13;6.10;;;3.50;99.90;;;;;;5050784;28;21069;-73
2021/01/28 06:19:17;;;;;;;10.33;5.43;;;3.50;99.90;;;;;;5051143;28;20469;-73
2021/01/28 06:21:56;;;;;;;8.10;5.00;;;3.50;99.90;;;;;;5051512;28;20835;-73
2021/01/28 06:24:58;;;;;;;7.23;5.80;;;3.50;99.90;;;;;;5049289;28;20438;-73
2021/01/28 06:27:41;;;;;;;9.10;6.23;;;3.50;99.90;;;;;;5050744;28;20447;-74
2021/01/28 06:30:13;;;;;;;6.67;5.60;;;3.50;99.90;;;;;;5050592;28;20527;-73
2021/01/28 06:33:16;;;;;;;6.40;5.20;;;3.50;99.90;;;;;;5050025;28;20464;-72
2021/01/28 06:36:17;;;;;;;9.63;6.10;;;3.50;99.90;;;;;;5050012;28;20463;-73
2021/01/28 06:39:23;;;;;;;8.77;5.23;;;3.60;99.90;;;;;;4989352;28;20504;-73
2021/01/28 06:42:16;;;;;;;6.93;5.30;;;3.60;99.90;;;;;;4950770;29;20962;-74
2021/01/28 06:44:56;;;;;;;8.30;5.50;;;3.60;99.90;;;;;;4950132;28;20511;-74
2021/01/28 06:47:30;;;;;;;9.27;6.47;;;3.60;99.90;;;;;;5021841;28;20478;-74
2021/01/28 06:50:12;;;;;;;9.40;7.47;;;3.60;99.90;;;;;;5050914;28;20420;-74
2021/01/28 06:52:47;;;;;;;9.93;6.50;;;3.60;99.90;;;;;;5048475;28;20565;-73
2021/01/28 06:55:23;;;;;;;9.77;6.77;;;3.60;99.90;;;;;;5041288;28;20540;-74
2021/01/28 06:58:05;;;;;;;12.27;7.20;;;3.70;99.90;;;;;;5049987;28;20509;-74
2021/01/28 07:00:40;;;;;;;9.70;7.17;;;3.70;99.90;;;;;;5048446;28;20547;-73
2021/01/28 07:03:15;;;;;;;10.57;6.47;;;3.80;99.90;;;;;;5040254;28;20443;-75
2021/01/28 07:05:51;;;;;;;16.10;7.43;;;3.90;99.90;;;;;;5037200;28;20520;-73
2021/01/28 07:08:51;;;;;;;13.20;8.40;;;3.90;99.90;;;;;;5049753;28;20463;-73
2021/01/28 07:11:37;;;;;;;11.80;7.17;;;4.00;99.90;;;;;;5036595;28;20439;-74
2021/01/28 07:14:04;;;;;;;13.17;8.83;;;3.90;99.90;;;;;;5028483;28;20480;-74
2021/01/28 07:16:34;;;;;;;10.73;7.80;;;3.90;99.90;;;;;;5044260;28;20487;-72
2021/01/28 07:19:06;;;;;;;10.73;8.33;;;4.00;99.90;;;;;;5049101;28;20424;-73
2021/01/28 07:21:38;;;;;;;10.10;7.60;;;4.00;99.90;;;;;;5045543;28;20802;-74
2021/01/28 07:24:07;;;;;;;12.43;7.63;;;4.00;99.90;;;;;;5045646;28;20438;-72
2021/01/28 07:27:07;;;;;;;9.07;7.00;;;4.10;99.90;;;;;;5049322;28;20909;-73
2021/01/28 07:29:38;;;;;;;8.03;6.77;;;4.00;99.90;;;;;;5048845;28;20939;-72
2021/01/28 07:32:07;;;;;;;12.47;6.90;;;4.00;99.90;;;;;;5048875;28;20973;-73
2021/01/28 07:34:33;;;;;;;8.00;6.50;;;4.00;99.90;;;;;;5047626;28;20439;-74
2021/01/28 07:37:22;;;;;;;12.43;7.43;;;3.90;99.90;;;;;;5048715;28;20482;-73
2021/01/28 07:39:47;;;;;;;10.27;6.13;;;4.00;99.90;;;;;;5039980;28;20217;-74
2021/01/28 07:42:21;;;;;;;10.27;5.97;;;4.00;99.90;;;;;;5044724;28;20465;-74
2021/01/28 07:44:56;;;;;;;10.53;7.63;;;4.10;99.90;;;;;;5047190;28;20199;-72
2021/01/28 07:47:30;;;;;;;6.93;6.23;;;4.10;99.90;;;;;;5048736;28;20444;-73
2021/01/28 07:50:14;;;;;;;10.20;6.93;;;4.00;99.90;;;;;;5047857;28;20830;-73
2021/01/28 07:52:41;;;;;;;10.40;6.50;;;3.90;99.90;;;;;;5048354;28;20431;-73
2021/01/28 07:55:45;;;;;;;9.30;6.40;;;3.90;99.90;;;;;;5027376;28;20449;-72
2021/01/28 07:58:33;;;;;;;9.13;5.70;;;3.90;99.90;;;;;;5044842;28;20444;-72
2021/01/28 08:01:12;;;;;;;10.00;6.17;;;3.80;99.90;;;;;;5045167;28;20428;-72
2021/01/28 08:04:05;;;;;;;7.70;5.80;;;3.80;99.90;;;;;;5048852;28;20427;-72
2021/01/28 08:06:33;;;;;;;7.47;4.90;;;3.80;99.90;;;;;;5047431;28;20477;-72
2021/01/28 08:09:05;;;;;;;8.67;7.13;;;3.90;99.90;;;;;;5043981;28;20801;-72
2021/01/28 08:11:31;;;;;;;7.37;5.57;;;3.90;99.90;;;;;;5045684;28;21025;-72
2021/01/28 08:13:58;;;;;;;8.27;5.80;;;3.90;99.90;;;;;;5048979;28;20431;-71
2021/01/28 08:16:24;;;;;;;6.40;5.33;;;3.90;99.90;;;;;;5047988;28;20464;-72
2021/01/28 08:19:02;;;;;;;9.00;6.07;;;3.90;99.90;;;;;;5046353;28;20877;-72
2021/01/28 08:21:29;;;;;;;11.00;6.17;;;3.90;99.90;;;;;;5049347;28;20432;-72
2021/01/28 08:24:07;;;;;;;6.87;4.90;;;4.00;99.90;;;;;;5042881;28;20433;-73
2021/01/28 08:26:34;;;;;;;5.33;4.70;;;4.00;99.90;;;;;;5044903;28;20439;-72
2021/01/28 08:29:08;;;;;;;7.43;4.80;;;4.00;99.90;;;;;;5046858;28;20844;-72
2021/01/28 08:31:41;;;;;;;4.93;4.43;;;4.00;99.90;;;;;;5047314;28;20992;-72
2021/01/28 08:34:12;;;;;;;6.43;4.30;;;4.10;99.90;;;;;;5052822;28;20791;-72
2021/01/28 08:36:49;;;;;;;7.13;5.00;;;4.10;99.90;;;;;;5047347;28;20829;-72
2021/01/28 08:39:15;;;;;;;5.90;4.23;;;4.10;99.90;;;;;;5047437;28;20443;-72
2021/01/28 08:41:42;;;;;;;6.13;4.40;;;4.10;99.90;;;;;;5045874;28;20436;-72
2021/01/28 08:44:12;;;;;;;4.27;3.87;;;4.10;99.90;;;;;;5047111;28;20170;-72
2021/01/28 08:46:39;;;;;;;5.83;4.00;;;4.20;99.90;;;;;;5049062;28;20432;-72
2021/01/28 08:49:18;;;;;;;3.90;3.57;;;4.20;99.90;;;;;;5051868;28;20459;-72
2021/01/28 08:51:54;;;;;;;4.77;4.03;;;4.20;99.90;;;;;;5048824;28;20813;-72
2021/01/28 08:54:25;;;;;;;4.40;4.00;;;4.20;99.90;;;;;;5047185;28;20423;-72
2021/01/28 08:56:55;;;;;;;4.63;3.37;;;4.20;99.90;;;;;;5040945;28;20562;-72
2021/01/28 08:59:23;;;;;;;5.53;4.13;;;4.30;99.90;;;;;;5052313;28;20464;-72
2021/01/28 09:01:52;;;;;;;5.10;4.37;;;4.30;99.90;;;;;;5052383;28;20768;-72
2021/01/28 09:04:35;;;;;;;6.13;3.80;;;4.30;99.90;;;;;;5051820;28;20460;-72
2021/01/28 09:07:02;;;;;;;13.30;7.30;;;4.30;99.90;;;;;;5051196;28;20463;-72
2021/01/28 09:09:30;;;;;;;4.37;3.27;;;4.40;99.90;;;;;;5049341;28;20783;-72
2021/01/28 09:12:16;;;;;;;3.60;2.70;;;4.40;99.90;;;;;;5048224;28;20423;-72
2021/01/28 09:14:42;;;;;;;3.00;2.67;;;4.40;99.90;;;;;;5049269;28;20515;-73
2021/01/28 09:17:30;;;;;;;5.83;3.20;;;4.40;99.90;;;;;;5051895;28;20484;-73
2021/01/28 09:19:59;;;;;;;5.20;3.03;;;4.50;99.90;;;;;;5044221;28;20434;-72
2021/01/28 09:22:36;;;;;;;3.50;2.67;;;4.50;99.90;;;;;;5051514;28;20792;-72
2021/01/28 09:25:17;;;;;;;3.80;3.43;;;4.50;99.90;;;;;;5036541;28;20467;-72
2021/01/28 09:27:43;;;;;;;6.20;2.97;;;4.50;99.90;;;;;;5014820;28;20514;-73
2021/01/28 09:30:23;;;;;;;5.47;3.93;;;4.60;99.90;;;;;;5052201;28;20432;-73
2021/01/28 09:32:49;;;;;;;3.40;2.70;;;4.60;99.90;;;;;;5052679;28;20470;-72
2021/01/28 09:35:19;;;;;;;4.00;2.77;;;4.60;99.90;;;;;;5051899;28;20975;-72
2021/01/28 09:37:48;;;;;;;5.30;4.20;;;4.70;99.90;;;;;;5052604;28;20500;-72
2021/01/28 09:40:38;;;;;;;3.17;2.87;;;4.80;99.90;;;;;;5033212;28;20429;-72
2021/01/28 09:43:31;;;;;;;6.30;3.00;;;4.80;99.90;;;;;;5015037;28;20417;-72
2021/01/28 09:46:04;;;;;;;3.03;2.33;;;4.80;99.90;;;;;;5052166;28;20541;-72
2021/01/28 09:48:30;;;;;;;4.87;3.10;;;4.80;99.90;;;;;;5032776;28;20452;-72
2021/01/28 09:50:55;;;;;;;3.83;2.73;;;4.80;99.90;;;;;;5052434;28;20423;-72
2021/01/28 09:53:21;;;;;;;14.60;5.70;;;4.80;99.90;;;;;;5035328;28;20697;-72
2021/01/28 09:55:48;;;;;;;6.80;3.23;;;4.80;99.90;;;;;;5039824;28;20567;-72
2021/01/28 09:58:13;;;;;;;2.93;2.63;;;4.90;99.90;;;;;;5034074;28;20305;-72
2021/01/28 10:00:39;;;;;;;5.43;2.63;;;4.90;99.90;;;;;;5050135;28;20952;-72
2021/01/28 10:03:06;;;;;;;2.60;2.40;;;5.00;99.90;;;;;;5051527;28;20174;-72
2021/01/28 10:05:33;;;;;;;3.97;2.93;;;5.00;99.90;;;;;;5047860;28;20813;-72
2021/01/28 10:07:59;;;;;;;2.60;2.40;;;5.10;99.90;;;;;;5051007;28;20471;-72
2021/01/28 10:10:31;;;;;;;2.80;2.40;;;5.10;99.90;;;;;;5051719;28;20806;-72
2021/01/28 10:12:59;;;;;;;5.60;3.53;;;5.10;99.90;;;;;;5048729;28;20439;-72
2021/01/28 10:15:25;;;;;;;2.80;2.13;;;5.20;99.90;;;;;;5050441;28;20955;-72
2021/01/28 10:17:52;;;;;;;3.13;2.80;;;5.20;99.90;;;;;;5050980;28;20471;-73
2021/01/28 10:20:18;;;;;;;5.90;2.60;;;5.30;99.90;;;;;;5028564;28;20463;-72
2021/01/28 10:22:44;;;;;;;2.90;2.03;;;5.30;99.90;;;;;;5045422;28;20428;-72
2021/01/28 10:25:13;;;;;;;3.23;2.10;;;5.30;99.90;;;;;;5049959;28;20420;-73
2021/01/28 10:27:40;;;;;;;4.03;3.07;;;5.40;99.90;;;;;;5049990;28;20205;-72
2021/01/28 10:30:07;;;;;;;2.93;2.73;;;5.40;99.90;;;;;;5049810;28;20432;-73
2021/01/28 10:32:33;;;;;;;6.67;3.30;;;5.40;99.90;;;;;;5050099;28;20802;-73
2021/01/28 10:34:59;;;;;;;3.37;3.07;;;5.40;99.90;;;;;;5040016;28;20479;-72
2021/01/28 10:37:24;;;;;;;6.00;3.60;;;5.40;99.90;;;;;;5046139;28;20193;-72
2021/01/28 10:39:50;;;;;;;3.23;2.93;;;5.50;99.90;;;;;;5049671;28;20507;-72
2021/01/28 10:42:19;;;;;;;4.17;3.77;;;5.50;99.90;;;;;;5050574;28;20239;-72
2021/01/28 10:44:45;;;;;;;4.10;3.73;;;5.50;99.90;;;;;;5049964;28;20189;-72
2021/01/28 10:47:11;;;;;;;4.10;3.60;;;5.50;99.90;;;;;;5049748;28;20444;-72
2021/01/28 10:49:36;;;;;;;6.20;4.03;;;5.50;99.90;;;;;;5050058;28;20423;-72
2021/01/28 10:52:02;;;;;;;4.90;3.80;;;5.50;99.90;;;;;;5049353;28;20184;-71
2021/01/28 10:54:27;;;;;;;4.47;3.67;;;5.60;99.90;;;;;;5049390;28;20169;-72
2021/01/28 10:56:53;;;;;;;4.70;3.10;;;5.60;99.90;;;;;;5039850;28;20300;-72
2021/01/28 10:59:19;;;;;;;4.27;3.33;;;5.60;99.90;;;;;;5043538;28;20178;-72
2021/01/28 11:01:44;;;;;;;4.13;3.57;;;5.70;99.90;;;;;;5048149;28;20174;-72
2021/01/28 11:04:10;;;;;;;2.90;2.70;;;5.80;99.90;;;;;;5042103;28;20575;-72
2021/01/28 11:06:35;;;;;;;3.50;3.20;;;5.90;99.90;;;;;;5043739;28;20204;-72
2021/01/28 11:09:01;;;;;;;17.93;10.23;;;5.90;99.90;;;;;;5049749;28;20711;-72
2021/01/28 11:11:26;;;;;;;4.37;3.57;;;5.90;99.90;;;;;;5049358;28;20188;-72
2021/01/28 11:13:54;;;;;;;5.10;3.50;;;5.90;99.90;;;;;;5049613;28;20177;-72
2021/01/28 11:16:23;;;;;;;3.17;2.60;;;5.90;99.90;;;;;;5049260;28;20193;-72
2021/01/28 11:18:53;;;;;;;3.97;2.30;;;5.90;99.90;;;;;;5028803;28;20428;-72
2021/01/28 11:21:19;;;;;;;3.13;2.83;;;6.00;99.90;;;;;;5040799;28;20435;-72
2021/01/28 11:23:45;;;;;;;3.57;3.20;;;6.00;99.90;;;;;;5047234;28;20441;-73
2021/01/28 11:26:10;;;;;;;2.43;2.23;;;6.00;99.90;;;;;;5050097;28;20507;-72
2021/01/28 11:28:36;;;;;;;4.07;2.60;;;6.00;99.90;;;;;;5048715;28;20205;-72
2021/01/28 11:31:02;;;;;;;3.17;2.30;;;6.10;99.90;;;;;;5032132;28;20609;-72
2021/01/28 11:33:28;;;;;;;4.90;2.87;;;6.10;99.90;;;;;;5050650;28;20440;-72
2021/01/28 11:35:53;;;;;;;19.40;7.93;;;6.20;99.90;;;;;;5049069;28;20852;-72
2021/01/28 11:38:19;;;;;;;2.30;2.10;;;6.40;99.90;;;;;;5048445;28;20673;-72
2021/01/28 11:40:44;;;;;;;2.70;2.50;;;6.50;99.90;;;;;;5046516;28;20166;-72
2021/01/28 11:43:10;;;;;;;2.80;2.60;;;6.70;99.90;;;;;;5030661;28;20177;-72
2021/01/28 11:45:36;;;;;;;2.40;2.20;;;7.00;99.90;;;;;;5040307;28;20189;-72
2021/01/28 11:48:03;;;;;;;2.53;2.20;;;7.30;99.90;;;;;;5049828;28;20208;-72
2021/01/28 11:50:29;;;;;;;3.83;3.30;;;7.30;99.90;;;;;;5033349;28;20439;-71
2021/01/28 11:52:54;;;;;;;2.50;2.23;;;7.30;99.90;;;;;;5050082;28;20443;-71
2021/01/28 11:55:24;;;;;;;2.93;2.73;;;7.20;99.90;;;;;;5049738;28;20826;-70
2021/01/28 11:57:50;;;;;;;2.80;2.30;;;7.20;99.90;;;;;;5050117;28;20232;-71
2021/01/28 12:00:17;;;;;;;4.13;2.50;;;7.10;99.90;;;;;;5049949;28;20459;-71
2021/01/28 12:02:43;;;;;;;4.17;3.70;;;7.00;99.90;;;;;;5015329;28;20269;-72
2021/01/28 12:05:12;;;;;;;3.83;3.40;;;7.10;99.90;;;;;;5047393;28;20474;-70
2021/01/28 12:07:38;;;;;;;4.77;3.10;;;7.20;99.90;;;;;;5053796;28;20517;-73
2021/01/28 12:10:07;;;;;;;3.13;2.83;;;7.30;99.90;;;;;;5053558;28;20428;-72
2021/01/28 12:12:32;;;;;;;3.13;2.83;;;7.40;99.90;;;;;;5046969;28;20813;-72
2021/01/28 12:14:58;;;;;;;6.10;4.90;;;7.40;99.90;;;;;;5036979;28;20434;-72
2021/01/28 12:17:23;;;;;;;3.27;2.97;;;7.40;99.90;;;;;;5046338;28;20212;-72
2021/01/28 12:19:49;;;;;;;4.80;3.40;;;7.40;99.90;;;;;;5036413;28;20182;-72
2021/01/28 12:22:15;;;;;;;3.90;3.50;;;7.50;99.90;;;;;;5021932;28;20174;-72
2021/01/28 12:24:40;;;;;;;3.00;2.80;;;7.60;99.90;;;;;;5042318;28;20182;-72
2021/01/28 12:27:06;;;;;;;2.90;2.60;;;7.60;99.90;;;;;;5047971;28;20198;-70
2021/01/28 12:29:32;;;;;;;3.67;3.37;;;7.60;99.90;;;;;;5044867;28;20185;-70
2021/01/28 12:31:57;;;;;;;3.43;2.53;;;7.60;99.90;;;;;;5046245;28;20185;-71
2021/01/28 12:34:26;;;;;;;3.50;2.93;;;7.70;99.90;;;;;;5036153;28;20642;-70
2021/01/28 12:36:51;;;;;;;3.87;3.07;;;7.70;99.90;;;;;;5050423;28;20205;-70
2021/01/28 12:39:17;;;;;;;3.70;2.70;;;7.70;99.90;;;;;;5043263;28;20435;-71
2021/01/28 12:41:43;;;;;;;6.90;3.27;;;7.70;99.90;;;;;;5041186;28;20553;-71
2021/01/28 12:44:08;;;;;;;3.60;2.73;;;7.80;99.90;;;;;;5052734;28;20729;-71
2021/01/28 12:46:34;;;;;;;3.90;3.07;;;7.80;99.90;;;;;;5052069;28;20189;-71
2021/01/28 12:49:00;;;;;;;4.20;3.30;;;7.90;99.90;;;;;;5018870;28;20182;-71
2021/01/28 12:51:26;;;;;;;4.47;2.80;;;8.00;99.90;;;;;;5039719;28;20806;-71
2021/01/28 12:53:51;;;;;;;2.47;2.27;;;8.00;99.90;;;;;;5053275;28;20230;-71
2021/01/28 12:56:17;;;;;;;3.40;2.67;;;8.10;99.90;;;;;;5052561;28;20204;-71
2021/01/28 12:58:42;;;;;;;10.63;2.43;;;8.30;99.90;;;;;;5052307;28;20197;-71
2021/01/28 13:01:08;;;;;;;2.30;2.10;;;8.40;99.90;;;;;;5053207;28;20546;-71
2021/01/28 13:03:33;;;;;;;3.23;2.90;;;8.60;99.90;;;;;;5052704;28;20178;-71
2021/01/28 13:05:59;;;;;;;3.87;3.30;;;8.90;99.90;;;;;;5051768;28;20272;-71
2021/01/28 13:08:24;;;;;;;2.47;2.27;;;9.20;99.90;;;;;;5052427;28;20211;-71
2021/01/28 13:10:50;;;;;;;2.40;1.93;;;9.30;99.90;;;;;;5052559;28;20178;-71
2021/01/28 13:13:16;;;;;;;2.03;1.43;;;9.20;99.90;;;;;;5052546;28;20587;-71